»·PEaware :: N12RC KPRC-KFLG

N12RC :: KPRC-KFLG

FLIGHT INFORMATION

Flight Status: Arrived
Operator: Privately registered:
United States
More flights under this callsign
Pilot: Bruce F. (35328)
Aircraft: BEECH AIRCRAFT BONANZA
(BE36)
More flights by this aircraft type
Origin: KPRC Love
United States
Destination: KFLG Flagstaff Pulliam
United States
More flights between these airports :: More routes between these airports
Route: DRK V12 OATES V327 FLG
File this flight plan on PilotEdge
Remarks:
Altitude:
(Current/Filed)
9,500ft
Speed:
(Current/Filed)
190kts
Departed: 23-Jul-23 08:45 AM
Arrived: 23-Jul-23 09:19 AM
Distance/Time
Traveled:
47nm/0:34
Distance/Time
To Go:
Arrived

Flight Plot

Page will automatically refresh every two minutes.

Flight plan parsing failed; only flown route is shown


Map Options




Map Legend


Flown Route
Filed Route
Departure Airport
Arrival Airport
Navaid (VOR, NDB)
Fix

Horizontal Profiles

Position Reports

Time Latitude Longitude Heading Altitude Ground
Speed
23-Jul-23 08:31 34.646165 -112.425995 132 5026ft 0kts
23-Jul-23 08:32 34.646687 -112.424723 317 5023ft 0kts
23-Jul-23 08:33 34.646687 -112.424723 318 5023ft 0kts
23-Jul-23 08:34 34.646687 -112.424723 318 5023ft 0kts
23-Jul-23 08:35 34.646687 -112.424723 318 5023ft 0kts
23-Jul-23 08:36 34.646687 -112.424723 318 5023ft 0kts
23-Jul-23 08:37 34.647355 -112.425121 12 5021ft 14kts
23-Jul-23 08:38 34.651764 -112.420638 48 5005ft 20kts
23-Jul-23 08:39 34.656394 -112.415701 41 4976ft 22kts
23-Jul-23 08:40 34.660274 -112.410909 38 4949ft 17kts
23-Jul-23 08:41 34.661622 -112.410652 308 4946ft 0kts
23-Jul-23 08:42 34.661622 -112.410652 308 4946ft 0kts
23-Jul-23 08:43 34.661141 -112.412407 220 4949ft 36kts
23-Jul-23 08:44 34.640769 -112.431894 176 5874ft 111kts
23-Jul-23 08:45 34.642113 -112.396766 69 7255ft 128kts
23-Jul-23 08:46 34.659777 -112.359252 73 8756ft 136kts
23-Jul-23 08:47 34.670497 -112.313419 73 9841ft 163kts
23-Jul-23 08:48 34.671398 -112.252715 96 9847ft 189kts
23-Jul-23 08:49 34.677031 -112.190486 62 9850ft 188kts
23-Jul-23 08:50 34.713473 -112.144950 45 9856ft 189kts
23-Jul-23 08:51 34.750780 -112.099571 45 9862ft 188kts
23-Jul-23 08:52 34.787878 -112.054448 45 9865ft 188kts
23-Jul-23 08:53 34.807274 -111.996125 74 9736ft 196kts
23-Jul-23 08:54 34.821363 -111.934767 74 8802ft 175kts
23-Jul-23 08:55 34.844380 -111.888826 52 7716ft 151kts
23-Jul-23 08:56 34.866160 -111.846105 67 6584ft 146kts
23-Jul-23 08:57 34.871292 -111.802023 134 6065ft 131kts
23-Jul-23 08:58 34.843857 -111.818371 230 5466ft 112kts
23-Jul-23 08:59 34.841582 -111.797191 47 4799ft 95kts
23-Jul-23 09:00 34.848920 -111.788736 318 4767ft 0kts
23-Jul-23 09:01 34.846713 -111.791941 224 4733ft 19kts
23-Jul-23 09:02 34.845455 -111.793127 184 4713ft 0kts
23-Jul-23 09:03 34.845455 -111.793127 184 4713ft 0kts
23-Jul-23 09:04 34.845455 -111.793127 184 4713ft 0kts
23-Jul-23 09:05 34.845455 -111.793127 184 4713ft 0kts
23-Jul-23 09:06 34.850120 -111.786437 48 4812ft 93kts
23-Jul-23 09:07 34.869043 -111.758181 43 6197ft 122kts
23-Jul-23 09:08 34.902643 -111.742565 14 7675ft 136kts
23-Jul-23 09:09 34.940718 -111.734525 16 9101ft 147kts
23-Jul-23 09:10 34.983487 -111.721314 14 9708ft 170kts
23-Jul-23 09:11 35.032869 -111.703744 20 9229ft 193kts
23-Jul-23 09:12 35.084158 -111.687634 16 8485ft 173kts
23-Jul-23 09:13 35.123694 -111.672318 32 7801ft 121kts
23-Jul-23 09:14 35.127474 -111.647808 217 8105ft 102kts
23-Jul-23 09:15 35.141060 -111.634851 42 8084ft 123kts
23-Jul-23 09:16 35.163743 -111.646506 235 7553ft 110kts
23-Jul-23 09:17 35.142932 -111.666421 213 6996ft 64kts
23-Jul-23 09:18 35.141118 -111.669609 309 7001ft 0kts
23-Jul-23 09:19 35.141118 -111.669609 309 7001ft 0kts
23-Jul-23 09:20 35.141118 -111.669609 309 7001ft 0kts
23-Jul-23 09:21 35.141118 -111.669609 309 7001ft 0kts
23-Jul-23 09:22 35.141118 -111.669609 309 7001ft 0kts
23-Jul-23 09:23 35.141118 -111.669609 309 7001ft 0kts
23-Jul-23 09:24 35.139185 -111.672193 221 7003ft 21kts
23-Jul-23 09:25 35.135858 -111.676142 312 7005ft 7kts
23-Jul-23 09:26 35.135798 -111.677008 223 7004ft 0kts
23-Jul-23 09:27 35.135798 -111.677008 223 7004ft 0kts
23-Jul-23 09:28 35.135798 -111.677008 223 7004ft 0kts

Navigation Log

Ident Type
Flight plan parsing failed, navigation log unavailable